createdAt,value
2022-11-03T00:01:07.973Z,6.94
2022-11-03T00:03:35.878Z,6.93
2022-11-03T00:06:07.286Z,6.91
2022-11-03T00:08:36.874Z,6.90
2022-11-03T00:11:12.941Z,6.88
2022-11-03T00:13:42.522Z,6.85
2022-11-03T00:16:13.357Z,6.83
2022-11-03T00:18:40.924Z,6.77
2022-11-03T00:21:11.233Z,6.75
2022-11-03T00:23:41.151Z,6.73
2022-11-03T00:26:10.503Z,6.71
2022-11-03T00:28:39.103Z,6.68
2022-11-03T00:31:12.964Z,6.67
2022-11-03T00:33:41.559Z,6.65
2022-11-03T00:36:13.116Z,6.64
2022-11-03T00:38:40.725Z,6.63
2022-11-03T00:41:10.689Z,6.62
2022-11-03T00:43:38.414Z,6.58
2022-11-03T00:46:07.561Z,6.55
2022-11-03T00:48:36.935Z,6.52
2022-11-03T00:51:16.171Z,6.51
2022-11-03T00:53:50.181Z,6.48
2022-11-03T00:56:20.656Z,6.45
2022-11-03T00:58:49.821Z,6.44
2022-11-03T01:01:31.765Z,6.42
2022-11-03T01:04:14.660Z,6.42
2022-11-03T01:06:51.090Z,6.42
2022-11-03T01:09:34.720Z,6.41
2022-11-03T01:12:13.181Z,6.40
2022-11-03T01:14:42.388Z,6.38
2022-11-03T01:17:27.206Z,6.34
2022-11-03T01:19:55.186Z,6.30
2022-11-03T01:22:23.976Z,6.26
2022-11-03T01:24:54.111Z,6.23
2022-11-03T01:27:25.582Z,6.20
2022-11-03T01:29:53.124Z,6.18
2022-11-03T01:32:20.669Z,6.17
2022-11-03T01:34:48.212Z,6.16
2022-11-03T01:37:15.755Z,6.14
2022-11-03T01:39:43.268Z,6.13
2022-11-03T01:42:14.429Z,6.12
2022-11-03T01:44:47.588Z,6.10
2022-11-03T01:47:19.289Z,6.10
2022-11-03T01:49:57.264Z,6.08
2022-11-03T01:52:37.434Z,6.04
2022-11-03T01:55:11.140Z,6.01
2022-11-03T01:57:50.545Z,5.99
2022-11-03T02:00:18.235Z,5.98
2022-11-03T02:02:46.277Z,5.96
2022-11-03T02:05:16.535Z,5.96
2022-11-03T02:07:51.135Z,5.97
2022-11-03T02:10:19.071Z,5.97
2022-11-03T02:12:48.109Z,5.96
2022-11-03T02:15:18.976Z,5.94
2022-11-03T02:17:48.954Z,5.91
2022-11-03T02:20:30.043Z,5.87
2022-11-03T02:23:13.819Z,5.84
2022-11-03T02:25:48.873Z,5.82
2022-11-03T02:28:21.294Z,5.80
2022-11-03T02:31:10.972Z,5.80
2022-11-03T02:33:59.925Z,5.80
2022-11-03T02:36:43.044Z,5.81
2022-11-03T02:39:19.308Z,5.80
2022-11-03T02:41:49.028Z,5.78
2022-11-03T02:44:19.655Z,5.77
2022-11-03T02:46:54.580Z,5.76
2022-11-03T02:49:22.133Z,5.74
2022-11-03T02:51:59.673Z,5.73
2022-11-03T02:54:35.745Z,5.72
2022-11-03T02:57:07.966Z,5.71
2022-11-03T03:00:00.026Z,5.70
2022-11-03T03:02:36.006Z,5.70
2022-11-03T03:05:08.793Z,5.71
2022-11-03T03:07:40.728Z,5.71
2022-11-03T03:10:14.520Z,5.70
2022-11-03T03:12:54.815Z,5.66
2022-11-03T03:15:34.228Z,5.64
2022-11-03T03:18:15.975Z,5.63
2022-11-03T03:21:04.868Z,5.60
2022-11-03T03:23:36.739Z,5.60
2022-11-03T03:26:15.702Z,5.60
2022-11-03T03:29:02.266Z,5.59
2022-11-03T03:31:35.159Z,5.58
2022-11-03T03:34:16.292Z,5.56
2022-11-03T03:36:54.026Z,5.53
2022-11-03T03:39:25.285Z,5.50
2022-11-03T03:41:55.499Z,5.45
2022-11-03T03:44:24.446Z,5.43
2022-11-03T03:46:59.599Z,5.40
2022-11-03T03:49:27.317Z,5.38
2022-11-03T03:51:55.072Z,5.37
2022-11-03T03:54:22.637Z,5.36
2022-11-03T03:57:02.101Z,5.34
2022-11-03T03:59:30.258Z,5.34
2022-11-03T04:01:59.114Z,5.34
2022-11-03T04:04:26.809Z,5.34
2022-11-03T04:07:14.317Z,5.32
2022-11-03T04:09:41.921Z,5.29
2022-11-03T04:12:24.436Z,5.25
2022-11-03T04:15:07.964Z,5.21
2022-11-03T04:17:52.173Z,5.17
2022-11-03T04:20:34.637Z,5.14
2022-11-03T04:23:02.148Z,5.14
2022-11-03T04:25:29.671Z,5.12
2022-11-03T04:27:57.255Z,5.10
2022-11-03T04:30:26.303Z,5.09
2022-11-03T04:32:54.508Z,5.07
2022-11-03T04:35:24.571Z,5.07
2022-11-03T04:37:57.277Z,5.08
2022-11-03T04:40:25.045Z,5.06
2022-11-03T04:42:52.702Z,5.03
2022-11-03T04:45:28.837Z,4.98
2022-11-03T04:47:59.062Z,4.96
2022-11-03T04:50:26.592Z,4.94
2022-11-03T04:53:00.183Z,4.94
2022-11-03T04:55:27.772Z,4.97
2022-11-03T04:58:02.635Z,5.01
2022-11-03T05:00:30.138Z,5.06
2022-11-03T05:02:57.975Z,5.08
2022-11-03T05:05:26.774Z,5.09
2022-11-03T05:07:56.705Z,5.11
2022-11-03T05:10:27.072Z,5.12
2022-11-03T05:12:56.013Z,5.13
2022-11-03T05:15:31.510Z,5.12
2022-11-03T05:18:01.306Z,5.11
2022-11-03T05:20:39.333Z,5.12
2022-11-03T05:23:12.250Z,5.13
2022-11-03T05:25:47.634Z,5.12
2022-11-03T05:28:21.404Z,5.13
2022-11-03T05:30:50.183Z,5.12
2022-11-03T05:33:30.653Z,5.09
2022-11-03T05:36:03.057Z,5.06
2022-11-03T05:38:32.430Z,5.04
2022-11-03T05:41:01.095Z,5.01
2022-11-03T05:43:29.808Z,4.96
2022-11-03T05:46:02.131Z,4.89
2022-11-03T05:48:40.922Z,4.81
2022-11-03T05:51:31.782Z,4.75
2022-11-03T05:54:02.753Z,4.72
2022-11-03T05:56:32.972Z,4.71
2022-11-03T05:59:02.847Z,4.73
2022-11-03T06:01:33.812Z,4.76
2022-11-03T06:04:22.504Z,4.78
2022-11-03T06:06:55.853Z,4.79
2022-11-03T06:09:26.760Z,4.75
2022-11-03T06:11:57.138Z,4.74
2022-11-03T06:14:27.061Z,4.74
2022-11-03T06:16:57.837Z,4.73
2022-11-03T06:19:31.228Z,4.72
2022-11-03T06:22:24.491Z,4.73
2022-11-03T06:25:31.333Z,4.74
2022-11-03T06:28:17.811Z,4.75
2022-11-03T06:30:46.425Z,4.81
2022-11-03T06:33:24.790Z,4.85
2022-11-03T06:35:59.472Z,4.91
2022-11-03T06:38:30.062Z,4.96
2022-11-03T06:40:58.706Z,5.00
2022-11-03T06:43:32.218Z,5.05
2022-11-03T06:46:18.887Z,5.12
2022-11-03T06:48:47.590Z,5.18
2022-11-03T06:51:30.008Z,5.23
2022-11-03T06:53:59.991Z,5.30
2022-11-03T06:56:35.178Z,5.39
2022-11-03T06:59:03.275Z,5.47
2022-11-03T07:01:35.207Z,5.55
2022-11-03T07:04:14.728Z,5.64
2022-11-03T07:06:43.287Z,5.75
2022-11-03T07:09:21.234Z,5.81
2022-11-03T07:11:50.934Z,5.88
2022-11-03T07:14:25.012Z,5.94
2022-11-03T07:16:56.029Z,5.98
2022-11-03T07:19:26.632Z,6.04
2022-11-03T07:22:04.491Z,6.10
2022-11-03T07:24:36.312Z,6.18
2022-11-03T07:27:19.832Z,6.28
2022-11-03T07:29:49.532Z,6.38
2022-11-03T07:32:22.539Z,6.47
2022-11-03T07:34:54.363Z,6.54
2022-11-03T07:37:25.867Z,6.59
2022-11-03T07:39:53.870Z,6.65
2022-11-03T07:42:24.313Z,6.71
2022-11-03T07:44:55.698Z,6.76
2022-11-03T07:47:25.699Z,6.81
2022-11-03T07:49:56.027Z,6.86
2022-11-03T07:52:25.960Z,6.93
2022-11-03T07:54:57.187Z,7.00
2022-11-03T07:57:30.329Z,7.08
2022-11-03T08:00:10.694Z,7.16
2022-11-03T08:02:48.401Z,7.26
2022-11-03T08:05:16.284Z,7.34
2022-11-03T08:07:43.990Z,7.44
2022-11-03T08:10:11.574Z,7.52
2022-11-03T08:12:39.391Z,7.59
2022-11-03T08:15:07.830Z,7.64
2022-11-03T08:17:35.399Z,7.69
2022-11-03T08:20:03.081Z,7.74
2022-11-03T08:22:30.705Z,7.79
2022-11-03T08:24:58.283Z,7.85
2022-11-03T08:27:27.530Z,7.93
2022-11-03T08:29:55.102Z,8.00
2022-11-03T08:32:22.641Z,8.07
2022-11-03T08:34:50.173Z,8.13
2022-11-03T08:37:17.704Z,8.17
2022-11-03T08:39:45.243Z,8.20
2022-11-03T08:42:12.799Z,8.25
2022-11-03T08:44:40.379Z,8.28
2022-11-03T08:47:07.897Z,8.33
2022-11-03T08:49:35.454Z,8.39
2022-11-03T08:52:03.033Z,8.42
2022-11-03T08:54:30.579Z,8.47
2022-11-03T08:56:58.434Z,8.51
2022-11-03T08:59:26.251Z,8.58
2022-11-03T09:01:53.923Z,8.66
2022-11-03T09:04:21.501Z,8.75
2022-11-03T09:06:49.019Z,8.84
2022-11-03T09:12:04.571Z,8.95
2022-11-03T09:14:32.158Z,8.98
2022-11-03T09:16:59.800Z,9.04
2022-11-03T09:19:28.435Z,9.09
2022-11-03T09:21:57.027Z,9.15
2022-11-03T09:24:24.654Z,9.25
2022-11-03T09:26:52.183Z,9.35
2022-11-03T09:29:19.806Z,9.45
2022-11-03T09:31:47.714Z,9.53
2022-11-03T09:34:15.295Z,9.62
2022-11-03T09:36:42.955Z,9.71
2022-11-03T09:39:10.531Z,9.78
2022-11-03T09:41:57.812Z,9.87
2022-11-03T09:44:26.071Z,9.94
2022-11-03T09:46:58.052Z,10.01
2022-11-03T09:49:27.767Z,10.05
2022-11-03T09:51:55.732Z,10.10
2022-11-03T09:54:24.084Z,10.19
2022-11-03T09:56:51.683Z,10.32
2022-11-03T09:59:21.969Z,10.46
2022-11-03T10:01:53.340Z,10.59
2022-11-03T10:04:27.846Z,10.70
2022-11-03T10:06:57.002Z,10.81
2022-11-03T10:09:26.156Z,10.89
2022-11-03T10:11:55.070Z,10.97
2022-11-03T10:14:23.143Z,11.04
2022-11-03T10:17:00.034Z,11.12
2022-11-03T10:19:28.072Z,11.24
2022-11-03T10:21:55.791Z,11.33
2022-11-03T10:24:25.258Z,11.40
2022-11-03T10:26:56.859Z,11.49
2022-11-03T10:29:27.522Z,11.56
2022-11-03T10:31:59.446Z,11.61
2022-11-03T10:34:34.942Z,11.64
2022-11-03T10:37:23.209Z,11.64
2022-11-03T10:39:55.510Z,11.68
2022-11-03T10:42:35.409Z,11.71
2022-11-03T10:45:15.297Z,11.72
2022-11-03T10:47:43.293Z,11.75
2022-11-03T10:50:27.566Z,11.80
2022-11-03T10:52:56.301Z,11.83
2022-11-03T10:55:26.248Z,11.85
2022-11-03T10:57:57.958Z,11.90
2022-11-03T11:00:25.666Z,11.97
2022-11-03T11:02:59.235Z,12.02
2022-11-03T11:05:26.871Z,12.06
2022-11-03T11:07:55.345Z,12.10
2022-11-03T11:10:25.318Z,12.19
2022-11-03T11:13:25.561Z,12.27
2022-11-03T11:15:55.685Z,12.34
2022-11-03T11:18:29.587Z,12.41
2022-11-03T11:21:01.786Z,12.49
2022-11-03T11:23:29.312Z,12.53
2022-11-03T11:26:14.478Z,12.54
2022-11-03T11:28:43.012Z,12.59
2022-11-03T11:31:26.512Z,12.67
2022-11-03T11:34:10.352Z,12.73
2022-11-03T11:36:42.688Z,12.78
2022-11-03T11:39:32.028Z,12.81
2022-11-03T11:42:20.928Z,12.79
2022-11-03T11:44:56.708Z,12.77
2022-11-03T11:47:33.788Z,12.76
2022-11-03T11:50:07.134Z,12.77
2022-11-03T11:52:38.410Z,12.80
2022-11-03T11:55:06.783Z,12.80
2022-11-03T11:57:35.084Z,12.81
2022-11-03T12:00:03.011Z,12.80
2022-11-03T12:02:39.825Z,12.78
2022-11-03T12:05:19.586Z,12.79
2022-11-03T12:07:50.997Z,12.80
2022-11-03T12:10:27.023Z,12.81
2022-11-03T12:13:02.715Z,12.76
2022-11-03T12:15:56.189Z,12.76
2022-11-03T12:18:49.353Z,12.75
2022-11-03T12:21:46.326Z,12.73
2022-11-03T12:24:36.151Z,12.72
2022-11-03T12:27:18.587Z,12.75
2022-11-03T12:29:46.410Z,12.80
2022-11-03T12:32:32.566Z,12.84
2022-11-03T12:35:02.995Z,12.84
2022-11-03T12:37:30.628Z,12.84
2022-11-03T12:39:58.168Z,12.84
2022-11-03T12:42:25.979Z,12.84
2022-11-03T12:44:53.783Z,12.84
2022-11-03T12:47:21.365Z,12.90
2022-11-03T12:49:49.375Z,13.00
2022-11-03T12:52:16.985Z,13.12
2022-11-03T12:54:44.565Z,13.24
2022-11-03T12:57:12.197Z,13.37
2022-11-03T12:59:40.560Z,13.56
2022-11-03T13:02:10.550Z,13.79
2022-11-03T13:04:39.091Z,14.03
2022-11-03T13:07:06.657Z,14.40
2022-11-03T13:09:35.754Z,14.99
2022-11-03T13:12:18.441Z,15.57
2022-11-03T13:14:47.841Z,15.82
2022-11-03T13:17:16.269Z,15.93
2022-11-03T13:19:43.798Z,15.92
2022-11-03T13:22:11.384Z,15.98
2022-11-03T13:24:38.922Z,15.98
2022-11-03T13:27:06.485Z,16.03
2022-11-03T13:29:35.897Z,15.97
2022-11-03T13:32:04.738Z,15.91
2022-11-03T13:34:32.326Z,15.71
2022-11-03T13:37:00.409Z,15.53
2022-11-03T13:39:28.226Z,15.52
2022-11-03T13:41:55.795Z,16.31
2022-11-03T13:44:23.303Z,16.54
2022-11-03T13:46:51.139Z,16.34
2022-11-03T13:52:09.782Z,15.76
2022-11-03T14:00:16.965Z,14.92
2022-11-03T14:05:32.416Z,14.32
2022-11-03T14:07:59.972Z,14.05
2022-11-03T14:10:27.693Z,13.81
2022-11-03T14:12:56.348Z,13.55
2022-11-03T14:15:23.898Z,13.27
2022-11-03T14:17:51.690Z,13.05
2022-11-03T14:20:19.414Z,12.85
2022-11-03T14:22:47.116Z,12.69
2022-11-03T14:25:14.675Z,12.52
2022-11-03T14:27:42.700Z,12.32
2022-11-03T14:30:11.599Z,12.13
2022-11-03T14:32:39.286Z,11.96
2022-11-03T14:35:07.657Z,11.86
2022-11-03T14:37:35.467Z,11.75
2022-11-03T14:40:04.036Z,11.58
2022-11-03T14:42:31.571Z,11.44
2022-11-03T14:44:59.086Z,11.32
2022-11-03T14:47:27.561Z,11.17
2022-11-03T14:49:55.076Z,11.03
2022-11-03T14:52:22.651Z,10.90
2022-11-03T14:54:52.048Z,10.78
2022-11-03T14:57:19.571Z,10.65
2022-11-03T14:59:52.209Z,10.52
2022-11-03T15:02:21.141Z,10.40
2022-11-03T15:04:48.808Z,10.27
2022-11-03T15:07:16.349Z,10.15
2022-11-03T15:09:43.919Z,10.05
2022-11-03T15:12:11.450Z,9.92
2022-11-03T15:14:38.986Z,9.80
2022-11-03T15:17:06.569Z,9.70
2022-11-03T15:19:34.325Z,9.58
2022-11-03T15:22:01.836Z,9.50
2022-11-03T15:27:17.284Z,9.32
2022-11-03T15:29:45.046Z,9.17
2022-11-03T15:32:12.623Z,9.02
2022-11-03T15:34:40.150Z,8.90
2022-11-03T15:37:07.684Z,8.82
2022-11-03T15:39:35.177Z,8.71
2022-11-03T15:42:02.795Z,8.59
2022-11-03T15:44:30.372Z,8.45
2022-11-03T15:46:57.932Z,8.30
2022-11-03T15:49:25.636Z,8.15
2022-11-03T15:51:53.157Z,8.02
2022-11-03T15:54:20.716Z,7.91
2022-11-03T15:56:48.499Z,7.82
2022-11-03T15:59:16.064Z,7.76
2022-11-03T16:01:43.753Z,7.71
2022-11-03T16:04:11.501Z,7.67
2022-11-03T16:07:07.464Z,7.66
2022-11-03T16:09:26.568Z,7.65
2022-11-03T16:11:54.061Z,7.66
2022-11-03T16:14:21.646Z,7.62
2022-11-03T16:16:49.162Z,7.54
2022-11-03T16:19:16.922Z,7.46
2022-11-03T16:21:44.759Z,7.38
2022-11-03T16:24:12.283Z,7.31
2022-11-03T16:26:39.992Z,7.23
2022-11-03T16:29:07.524Z,7.17
2022-11-03T16:31:35.885Z,7.14
2022-11-03T16:34:04.680Z,7.11
2022-11-03T16:36:32.217Z,7.10
2022-11-03T16:38:59.761Z,7.06
2022-11-03T16:41:27.276Z,7.04
2022-11-03T16:43:54.779Z,7.00
2022-11-03T16:46:22.420Z,6.97
2022-11-03T16:48:50.040Z,6.93
2022-11-03T16:51:17.983Z,6.86
2022-11-03T16:53:45.516Z,6.80
2022-11-03T16:56:13.724Z,6.75
2022-11-03T16:58:41.327Z,6.70
2022-11-03T17:01:09.110Z,6.64
2022-11-03T17:03:36.761Z,6.57
2022-11-03T17:06:04.487Z,6.52
2022-11-03T17:08:51.993Z,6.47
2022-11-03T17:11:35.888Z,6.40
2022-11-03T17:14:13.152Z,6.36
2022-11-03T17:16:45.181Z,6.37
2022-11-03T17:19:13.614Z,6.35
2022-11-03T17:21:41.374Z,6.36
2022-11-03T17:24:11.074Z,6.35
2022-11-03T17:26:56.030Z,6.37
2022-11-03T17:29:37.339Z,6.37
2022-11-03T17:32:35.860Z,6.37
2022-11-03T17:35:45.689Z,6.36
2022-11-03T17:38:17.538Z,6.31
2022-11-03T17:40:47.014Z,6.28
2022-11-03T17:43:21.189Z,6.27
2022-11-03T17:45:48.890Z,6.25
2022-11-03T17:48:17.323Z,6.23
2022-11-03T17:50:48.161Z,6.22
2022-11-03T17:53:31.965Z,6.20
2022-11-03T17:56:29.479Z,6.19
2022-11-03T17:58:49.870Z,6.18
2022-11-03T18:01:24.469Z,6.15
2022-11-03T18:03:52.633Z,6.10
2022-11-03T18:06:21.923Z,6.06
2022-11-03T18:12:56.883Z,6.03
2022-11-03T18:15:25.913Z,6.06
2022-11-03T18:17:53.474Z,6.04
2022-11-03T18:20:25.974Z,5.99
2022-11-03T18:22:57.733Z,5.90
2022-11-03T18:25:25.273Z,5.84
2022-11-03T18:27:52.791Z,5.74
2022-11-03T18:30:20.326Z,5.68
2022-11-03T18:32:48.951Z,5.63
2022-11-03T18:35:22.882Z,5.57
2022-11-03T18:37:50.777Z,5.54
2022-11-03T18:40:20.185Z,5.50
2022-11-03T18:42:47.910Z,5.51
2022-11-03T18:45:18.615Z,5.53
2022-11-03T18:47:46.189Z,5.58
2022-11-03T18:50:16.297Z,5.62
2022-11-03T18:52:51.934Z,5.68
2022-11-03T18:55:19.535Z,5.73
2022-11-03T18:57:47.192Z,5.74
2022-11-03T19:00:20.821Z,5.74
2022-11-03T19:02:50.397Z,5.71
2022-11-03T19:05:19.046Z,5.65
2022-11-03T19:07:49.872Z,5.57
2022-11-03T19:10:22.215Z,5.49
2022-11-03T19:12:49.768Z,5.41
2022-11-03T19:15:21.445Z,5.36
2022-11-03T19:17:52.544Z,5.30
2022-11-03T19:20:20.447Z,5.24
2022-11-03T19:22:48.006Z,5.21
2022-11-03T19:25:15.896Z,5.16
2022-11-03T19:27:46.330Z,5.11
2022-11-03T19:30:18.025Z,5.07
2022-11-03T19:32:48.628Z,5.11
2022-11-03T19:35:35.332Z,5.19
2022-11-03T19:38:12.263Z,5.22
2022-11-03T19:41:03.809Z,5.22
2022-11-03T19:43:34.777Z,5.19
2022-11-03T19:46:04.686Z,5.16
2022-11-03T19:48:34.148Z,5.15
2022-11-03T19:51:04.110Z,5.13
2022-11-03T19:53:33.146Z,5.08
2022-11-03T19:56:01.419Z,5.04
2022-11-03T19:58:29.505Z,4.99
2022-11-03T20:00:57.147Z,4.96
2022-11-03T20:03:25.166Z,4.94
2022-11-03T20:05:56.477Z,4.95
2022-11-03T20:08:27.579Z,4.96
2022-11-03T20:10:55.905Z,4.99
2022-11-03T20:13:26.238Z,5.06
2022-11-03T20:16:00.766Z,5.11
2022-11-03T20:18:29.269Z,5.14
2022-11-03T20:20:58.222Z,5.16
2022-11-03T20:23:30.262Z,5.16
2022-11-03T20:25:58.537Z,5.16
2022-11-03T20:28:28.871Z,5.12
2022-11-03T20:30:57.203Z,5.09
2022-11-03T20:33:25.516Z,5.07
2022-11-03T20:35:54.575Z,5.06
2022-11-03T20:38:24.878Z,5.07
2022-11-03T20:40:58.829Z,5.11
2022-11-03T20:43:45.800Z,5.15
2022-11-03T20:46:36.556Z,5.22
2022-11-03T20:49:04.350Z,5.24
2022-11-03T20:51:35.066Z,5.26
2022-11-03T20:54:11.245Z,5.25
2022-11-03T20:56:38.828Z,5.27
2022-11-03T20:59:06.360Z,5.28
2022-11-03T21:01:34.257Z,5.29
2022-11-03T21:04:03.111Z,5.30
2022-11-03T21:06:32.319Z,5.32
2022-11-03T21:08:59.956Z,5.34
2022-11-03T21:11:33.818Z,5.36
2022-11-03T21:14:07.787Z,5.40
2022-11-03T21:16:51.382Z,5.44
2022-11-03T21:19:37.656Z,5.48
2022-11-03T21:22:45.851Z,5.51
2022-11-03T21:25:17.228Z,5.53
2022-11-03T21:27:45.612Z,5.54
2022-11-03T21:30:15.486Z,5.55
2022-11-03T21:32:43.484Z,5.57
2022-11-03T21:35:14.884Z,5.61
2022-11-03T21:37:42.450Z,5.66
2022-11-03T21:40:10.983Z,5.75
2022-11-03T21:42:54.546Z,5.83
2022-11-03T21:45:22.093Z,5.90
2022-11-03T21:48:11.817Z,5.97
2022-11-03T21:50:41.134Z,6.05
2022-11-03T21:53:09.414Z,6.10
2022-11-03T21:55:37.381Z,6.13
2022-11-03T21:58:05.311Z,6.15
2022-11-03T22:00:33.766Z,6.17
2022-11-03T22:03:01.628Z,6.19
2022-11-03T22:05:29.424Z,6.23
2022-11-03T22:07:56.993Z,6.25
2022-11-03T22:10:24.728Z,6.25
2022-11-03T22:12:52.385Z,6.25
2022-11-03T22:15:35.917Z,6.24
2022-11-03T22:18:06.061Z,6.21
2022-11-03T22:20:52.246Z,6.19
2022-11-03T22:23:35.805Z,6.19
2022-11-03T22:26:20.300Z,6.17
2022-11-03T22:29:07.825Z,6.17
2022-11-03T22:31:41.303Z,6.17
2022-11-03T22:34:26.233Z,6.19
2022-11-03T22:36:54.066Z,6.26
2022-11-03T22:39:37.838Z,6.32
2022-11-03T22:42:20.449Z,6.38
2022-11-03T22:45:03.991Z,6.47
2022-11-03T22:47:31.606Z,6.55
2022-11-03T22:49:59.127Z,6.61
2022-11-03T22:52:26.622Z,6.67
2022-11-03T22:54:54.126Z,6.73
2022-11-03T22:57:21.640Z,6.79
2022-11-03T22:59:49.271Z,6.85
2022-11-03T23:02:16.910Z,6.90
2022-11-03T23:04:46.300Z,6.93
2022-11-03T23:07:13.846Z,6.93
2022-11-03T23:09:41.439Z,6.91
2022-11-03T23:12:08.986Z,6.90
2022-11-03T23:14:52.541Z,6.88
2022-11-03T23:17:40.616Z,6.87
2022-11-03T23:20:29.196Z,6.85
2022-11-03T23:22:57.830Z,6.82
2022-11-03T23:25:25.355Z,6.80
2022-11-03T23:27:52.957Z,6.77
2022-11-03T23:30:20.573Z,6.74
2022-11-03T23:32:48.115Z,6.73
2022-11-03T23:35:16.851Z,6.71
2022-11-03T23:37:44.386Z,6.69
2022-11-03T23:40:15.923Z,6.70
2022-11-03T23:42:46.459Z,6.70
2022-11-03T23:45:40.440Z,6.70
2022-11-03T23:48:34.237Z,6.70
2022-11-03T23:51:01.740Z,6.68
2022-11-03T23:53:29.506Z,6.68
2022-11-03T23:56:16.050Z,6.65
2022-11-03T23:58:43.868Z,6.63
